createdAt,value
2022-12-11T00:00:11.908Z,14.47
2022-12-11T00:04:18.568Z,14.40
2022-12-11T00:08:25.312Z,12.70
2022-12-11T00:12:32.441Z,12.73
2022-12-11T00:16:39.298Z,12.10
2022-12-11T00:20:46.011Z,13.67
2022-12-11T00:24:52.791Z,12.90
2022-12-11T00:28:59.437Z,14.90
2022-12-11T00:33:06.136Z,13.53
2022-12-11T00:37:12.810Z,14.80
2022-12-11T00:41:20.019Z,13.30
2022-12-11T00:45:26.899Z,15.50
2022-12-11T00:49:33.573Z,14.17
2022-12-11T00:53:40.233Z,14.53
2022-12-11T00:57:47.327Z,15.80
2022-12-11T01:01:54.098Z,15.97
2022-12-11T01:06:00.787Z,17.17
2022-12-11T01:10:25.716Z,15.10
2022-12-11T01:14:32.587Z,16.50
2022-12-11T01:18:39.461Z,16.00
2022-12-11T01:22:46.132Z,15.10
2022-12-11T01:26:52.789Z,16.83
2022-12-11T01:30:59.495Z,16.73
2022-12-11T01:35:08.255Z,15.57
2022-12-11T01:39:15.056Z,16.33
2022-12-11T01:43:21.767Z,16.00
2022-12-11T01:47:28.398Z,16.97
2022-12-11T01:51:42.489Z,15.97
2022-12-11T01:55:51.267Z,15.30
2022-12-11T01:59:58.201Z,16.63
2022-12-11T02:04:06.601Z,18.20
2022-12-11T02:08:13.667Z,16.00
2022-12-11T02:12:31.201Z,16.97
2022-12-11T02:16:55.653Z,16.37
2022-12-11T02:21:23.012Z,15.83
2022-12-11T02:25:41.632Z,16.20
2022-12-11T02:30:03.984Z,15.97
2022-12-11T02:34:18.727Z,11.68
2022-12-11T02:38:35.905Z,17.23
2022-12-11T02:42:44.260Z,16.10
2022-12-11T02:46:52.423Z,15.00
2022-12-11T02:51:01.136Z,19.10
2022-12-11T02:55:10.105Z,16.33
2022-12-11T02:59:25.886Z,16.83
2022-12-11T03:03:32.585Z,15.10
2022-12-11T03:07:41.126Z,17.20
2022-12-11T03:11:47.821Z,16.80
2022-12-11T03:16:08.412Z,15.53
2022-12-11T03:20:36.179Z,17.27
2022-12-11T03:25:20.506Z,14.13
2022-12-11T03:29:35.181Z,17.00
2022-12-11T03:33:45.597Z,15.43
2022-12-11T03:37:54.587Z,15.07
2022-12-11T03:42:08.255Z,14.90
2022-12-11T03:46:17.204Z,14.77
2022-12-11T03:50:28.355Z,15.30
2022-12-11T03:54:35.432Z,14.97
2022-12-11T03:58:42.295Z,14.60
2022-12-11T04:03:13.211Z,14.17
2022-12-11T04:07:20.576Z,13.97
2022-12-11T04:11:36.075Z,15.53
2022-12-11T04:15:42.794Z,14.23
2022-12-11T04:20:08.124Z,12.40
2022-12-11T04:24:17.830Z,13.70
2022-12-11T04:28:24.603Z,12.37
2022-12-11T04:32:31.280Z,12.87
2022-12-11T04:36:38.088Z,14.20
2022-12-11T04:40:44.739Z,13.17
2022-12-11T04:44:51.384Z,13.67
2022-12-11T04:49:00.185Z,12.70
2022-12-11T04:53:06.852Z,13.87
2022-12-11T04:57:13.663Z,11.63
2022-12-11T05:01:22.925Z,12.80
2022-12-11T05:05:29.711Z,12.90
2022-12-11T05:09:36.718Z,12.57
2022-12-11T05:13:44.787Z,13.10
2022-12-11T05:17:51.627Z,12.13
2022-12-11T05:21:58.330Z,10.97
2022-12-11T05:26:11.786Z,11.73
2022-12-11T05:30:18.575Z,13.43
2022-12-11T05:34:25.350Z,12.50
2022-12-11T05:38:32.057Z,11.23
2022-12-11T05:42:38.817Z,14.13
2022-12-11T05:46:45.710Z,12.50
2022-12-11T05:51:00.699Z,13.03
2022-12-11T05:55:09.590Z,13.43
2022-12-11T05:59:17.001Z,15.07
2022-12-11T06:03:23.663Z,13.13
2022-12-11T06:07:30.333Z,15.63
2022-12-11T06:11:36.972Z,14.43
2022-12-11T06:15:43.900Z,13.37
2022-12-11T06:19:50.647Z,12.57
2022-12-11T06:24:00.314Z,14.83
2022-12-11T06:28:07.308Z,14.60
2022-12-11T06:32:13.976Z,15.77
2022-12-11T06:36:22.805Z,16.33
2022-12-11T06:40:29.585Z,14.83
2022-12-11T06:44:36.284Z,14.83
2022-12-11T06:48:44.208Z,15.53
2022-12-11T06:52:50.905Z,14.80
2022-12-11T06:56:57.593Z,15.17
2022-12-11T07:01:05.921Z,16.63
2022-12-11T07:05:13.481Z,14.83
2022-12-11T07:09:20.389Z,14.53
2022-12-11T07:13:27.217Z,14.53
2022-12-11T07:17:33.886Z,15.60
2022-12-11T07:21:40.667Z,16.47
2022-12-11T07:25:47.779Z,15.33
2022-12-11T07:29:55.624Z,15.13
2022-12-11T07:34:07.110Z,15.73
2022-12-11T07:38:13.908Z,14.97
2022-12-11T07:42:20.574Z,16.30
2022-12-11T07:46:30.341Z,16.63
2022-12-11T07:50:39.917Z,15.83
2022-12-11T07:54:46.807Z,17.27
2022-12-11T07:58:53.860Z,15.07
2022-12-11T08:03:00.552Z,15.37
2022-12-11T08:07:07.418Z,15.40
2022-12-11T08:11:15.741Z,16.83
2022-12-11T08:15:22.517Z,15.00
2022-12-11T08:19:29.235Z,17.20
2022-12-11T08:23:35.955Z,15.20
2022-12-11T08:27:42.639Z,13.97
2022-12-11T08:31:50.094Z,13.57
2022-12-11T08:35:56.894Z,13.53
2022-12-11T08:40:04.353Z,13.47
2022-12-11T08:44:16.315Z,14.20
2022-12-11T08:52:31.425Z,13.80
2022-12-11T08:56:39.144Z,13.13
2022-12-11T09:00:45.825Z,11.73
2022-12-11T09:04:52.499Z,12.80
2022-12-11T09:09:00.632Z,12.13
2022-12-11T09:13:07.327Z,10.83
2022-12-11T09:17:14.318Z,12.30
2022-12-11T09:21:23.996Z,11.83
2022-12-11T09:25:30.751Z,11.47
2022-12-11T09:29:38.489Z,10.97
2022-12-11T09:33:45.611Z,9.47
2022-12-11T09:37:52.318Z,9.10
2022-12-11T09:42:25.375Z,10.13
2022-12-11T09:46:34.556Z,8.90
2022-12-11T09:50:43.776Z,8.20
2022-12-11T09:54:54.648Z,8.90
2022-12-11T09:59:24.079Z,8.77
2022-12-11T10:03:54.273Z,9.17
2022-12-11T10:08:17.712Z,9.13
2022-12-11T10:13:05.404Z,8.60
2022-12-11T10:17:28.416Z,9.50
2022-12-11T10:21:41.726Z,9.07
2022-12-11T10:26:02.604Z,7.87
2022-12-11T10:30:25.172Z,8.60
2022-12-11T10:34:36.051Z,8.02
2022-12-11T10:38:45.065Z,8.67
2022-12-11T10:42:53.921Z,8.30
2022-12-11T10:47:23.777Z,9.10
2022-12-11T10:51:30.436Z,8.53
2022-12-11T10:55:48.915Z,7.83
2022-12-11T10:59:58.506Z,7.10
2022-12-11T11:04:15.215Z,8.87
2022-12-11T11:08:23.989Z,9.77
2022-12-11T11:12:36.937Z,9.27
2022-12-11T11:21:04.065Z,8.10
2022-12-11T11:25:22.318Z,9.43
2022-12-11T11:29:32.986Z,9.83
2022-12-11T11:33:58.826Z,7.53
2022-12-11T11:38:20.088Z,7.23
2022-12-11T11:42:35.658Z,9.10
2022-12-11T11:46:53.476Z,8.47
2022-12-11T11:51:15.308Z,9.87
2022-12-11T11:55:38.016Z,9.57
2022-12-11T11:59:54.039Z,9.15
2022-12-11T12:04:03.650Z,8.93
2022-12-11T12:08:17.755Z,7.80
2022-12-11T12:12:45.683Z,9.07
2022-12-11T12:17:08.901Z,8.67
2022-12-11T12:21:35.957Z,9.10
2022-12-11T12:26:07.578Z,8.83
2022-12-11T12:30:22.953Z,9.33
2022-12-11T12:34:58.444Z,10.20
2022-12-11T12:39:15.819Z,10.33
2022-12-11T12:43:52.497Z,10.00
2022-12-11T12:47:59.692Z,11.17
2022-12-11T12:52:14.640Z,10.00
2022-12-11T12:56:22.534Z,10.33
2022-12-11T13:00:41.486Z,11.20
2022-12-11T13:04:58.846Z,11.80
2022-12-11T13:09:26.287Z,11.43
2022-12-11T13:13:41.054Z,11.40
2022-12-11T13:17:47.773Z,10.27
2022-12-11T13:22:12.504Z,11.03
2022-12-11T13:26:33.842Z,12.00
2022-12-11T13:30:41.206Z,11.27
2022-12-11T13:35:03.893Z,10.53
2022-12-11T13:39:22.001Z,11.20
2022-12-11T13:43:33.694Z,10.83
2022-12-11T13:47:41.165Z,9.57
2022-12-11T13:51:56.918Z,10.73
2022-12-11T13:56:06.995Z,9.47
2022-12-11T14:00:23.440Z,11.23
2022-12-11T14:04:31.691Z,10.50
2022-12-11T14:08:42.796Z,9.57
2022-12-11T14:13:26.029Z,10.20
2022-12-11T14:17:35.260Z,10.93
2022-12-11T14:21:42.013Z,15.10
2022-12-11T14:26:02.860Z,13.87
2022-12-11T14:30:12.348Z,11.50
2022-12-11T14:34:33.760Z,9.93
2022-12-11T14:38:47.232Z,11.27
2022-12-11T14:43:00.431Z,10.33
2022-12-11T14:47:15.694Z,10.07
2022-12-11T14:51:23.220Z,10.67
2022-12-11T14:55:34.844Z,10.10
2022-12-11T14:59:46.684Z,10.52
2022-12-11T15:04:15.306Z,10.90
2022-12-11T15:08:34.504Z,9.90
2022-12-11T15:12:45.079Z,11.30
2022-12-11T15:16:55.946Z,10.33
2022-12-11T15:21:07.082Z,9.50
2022-12-11T15:25:21.951Z,10.20
2022-12-11T15:29:36.723Z,10.10
2022-12-11T15:33:50.144Z,9.73
2022-12-11T15:37:58.307Z,10.23
2022-12-11T15:42:06.374Z,10.17
2022-12-11T15:46:13.089Z,10.17
2022-12-11T15:50:28.183Z,11.03
2022-12-11T15:54:34.864Z,10.00
2022-12-11T15:58:44.569Z,11.20
2022-12-11T16:02:52.113Z,10.33
2022-12-11T16:06:58.996Z,9.30
2022-12-11T16:11:05.762Z,9.73
2022-12-11T16:15:17.485Z,10.47
2022-12-11T16:19:28.272Z,9.90
2022-12-11T16:23:34.945Z,10.57
2022-12-11T16:27:42.649Z,10.27
2022-12-11T16:31:49.417Z,10.87
2022-12-11T16:35:56.099Z,10.77
2022-12-11T16:40:02.882Z,10.33
2022-12-11T16:44:10.449Z,10.70
2022-12-11T16:48:17.116Z,10.93
2022-12-11T16:52:23.797Z,10.90
2022-12-11T16:56:30.600Z,10.60
2022-12-11T17:00:38.065Z,9.73
2022-12-11T17:04:52.144Z,9.33
2022-12-11T17:09:00.753Z,10.03
2022-12-11T17:13:07.459Z,9.57
2022-12-11T17:17:14.146Z,10.27
2022-12-11T17:21:22.173Z,9.63
2022-12-11T17:25:28.838Z,9.20
2022-12-11T17:29:35.583Z,9.23
2022-12-11T17:33:42.753Z,9.20
2022-12-11T17:37:49.458Z,9.87
2022-12-11T17:41:56.123Z,9.50
2022-12-11T17:46:03.638Z,10.73
2022-12-11T17:50:10.899Z,10.93
2022-12-11T17:54:17.536Z,11.63
2022-12-11T17:58:24.194Z,11.30
2022-12-11T18:02:30.864Z,10.70
2022-12-11T18:06:37.559Z,10.90
2022-12-11T18:10:45.261Z,10.63
2022-12-11T18:14:52.013Z,10.63
2022-12-11T18:18:58.821Z,10.77
2022-12-11T18:23:06.277Z,11.23
2022-12-11T18:27:14.448Z,11.37
2022-12-11T18:31:22.421Z,10.70
2022-12-11T18:35:29.984Z,10.30
2022-12-11T18:39:36.684Z,10.43
2022-12-11T18:43:43.380Z,10.83
2022-12-11T18:47:53.152Z,12.53
2022-12-11T18:51:59.858Z,11.67
2022-12-11T18:56:10.062Z,11.70
2022-12-11T19:00:17.478Z,11.83
2022-12-11T19:04:24.328Z,12.07
2022-12-11T19:08:31.009Z,11.73
2022-12-11T19:12:37.673Z,10.90
2022-12-11T19:16:45.531Z,10.77
2022-12-11T19:20:58.002Z,10.67
2022-12-11T19:25:11.811Z,10.47
2022-12-11T19:29:25.155Z,11.97
2022-12-11T19:33:31.940Z,10.47
2022-12-11T19:37:38.777Z,11.07
2022-12-11T19:41:45.965Z,10.40
2022-12-11T19:45:52.641Z,11.17
2022-12-11T19:49:59.379Z,10.90
2022-12-11T19:54:07.743Z,10.60
2022-12-11T19:58:15.562Z,10.53
2022-12-11T20:02:22.286Z,11.07
2022-12-11T20:06:31.328Z,10.33
2022-12-11T20:10:38.269Z,10.97
2022-12-11T20:14:45.004Z,12.70
2022-12-11T20:18:51.914Z,9.80
2022-12-11T20:22:59.492Z,9.90
2022-12-11T20:27:06.415Z,11.63
2022-12-11T20:31:19.953Z,10.57
2022-12-11T20:35:27.323Z,10.70
2022-12-11T20:39:34.069Z,10.40
2022-12-11T20:43:41.447Z,10.47
2022-12-11T20:47:48.516Z,10.00
2022-12-11T20:51:55.244Z,11.27
2022-12-11T20:56:03.189Z,11.53
2022-12-11T21:00:10.724Z,10.97
2022-12-11T21:04:17.913Z,10.80
2022-12-11T21:08:24.793Z,10.97
2022-12-11T21:12:31.916Z,11.53
2022-12-11T21:16:38.835Z,10.50
2022-12-11T21:20:45.584Z,12.00
2022-12-11T21:24:52.614Z,10.90
2022-12-11T21:28:59.337Z,11.27
2022-12-11T21:33:05.992Z,10.03
2022-12-11T21:37:12.734Z,11.33
2022-12-11T21:41:22.386Z,10.27
2022-12-11T21:45:59.895Z,11.07
2022-12-11T21:49:55.699Z,10.33
2022-12-11T21:54:03.084Z,11.50
2022-12-11T21:58:10.372Z,10.80
2022-12-11T22:02:17.283Z,11.00
2022-12-11T22:06:24.209Z,11.27
2022-12-11T22:10:30.902Z,11.00
2022-12-11T22:14:37.545Z,11.37
2022-12-11T22:18:44.664Z,11.33
2022-12-11T22:22:51.333Z,11.47
2022-12-11T22:26:57.963Z,11.30
2022-12-11T22:31:04.739Z,10.13
2022-12-11T22:35:11.777Z,10.40
2022-12-11T22:39:18.819Z,10.77
2022-12-11T22:43:25.538Z,10.83
2022-12-11T22:47:32.476Z,10.30
2022-12-11T22:51:39.381Z,9.90
2022-12-11T22:55:46.163Z,10.03
2022-12-11T22:59:52.960Z,10.63
2022-12-11T23:03:59.844Z,9.43
2022-12-11T23:08:07.098Z,10.43
2022-12-11T23:12:13.894Z,10.93
2022-12-11T23:16:22.076Z,10.13
2022-12-11T23:20:28.855Z,11.23
2022-12-11T23:24:35.527Z,10.67
2022-12-11T23:28:42.293Z,9.60
2022-12-11T23:32:48.934Z,9.93
2022-12-11T23:36:55.646Z,9.50
2022-12-11T23:41:03.932Z,9.90
2022-12-11T23:45:11.079Z,10.87
2022-12-11T23:49:18.040Z,11.27
2022-12-11T23:53:24.699Z,11.47
2022-12-11T23:57:31.357Z,10.97
